createdAt,value
2022-09-09T00:00:16.668Z,6.40
2022-09-09T00:02:47.843Z,5.50
2022-09-09T00:05:20.471Z,2.03
2022-09-09T00:07:50.517Z,3.50
2022-09-09T00:10:23.731Z,3.80
2022-09-09T00:12:57.485Z,4.13
2022-09-09T00:15:28.111Z,3.93
2022-09-09T00:17:59.514Z,7.53
2022-09-09T00:20:31.732Z,6.43
2022-09-09T00:23:02.149Z,3.27
2022-09-09T00:25:32.662Z,8.37
2022-09-09T00:28:02.571Z,8.40
2022-09-09T00:30:34.938Z,9.37
2022-09-09T00:33:05.129Z,6.13
2022-09-09T00:35:35.660Z,6.97
2022-09-09T00:38:05.698Z,6.37
2022-09-09T00:40:35.228Z,7.57
2022-09-09T00:43:15.180Z,7.00
2022-09-09T00:46:01.300Z,5.97
2022-09-09T00:48:36.908Z,10.13
2022-09-09T00:51:07.270Z,6.30
2022-09-09T00:53:42.984Z,8.43
2022-09-09T00:56:14.859Z,5.97
2022-09-09T00:58:45.438Z,4.33
2022-09-09T01:01:14.686Z,5.93
2022-09-09T01:03:46.725Z,6.93
2022-09-09T01:06:17.921Z,7.83
2022-09-09T01:08:55.635Z,8.67
2022-09-09T01:11:25.425Z,9.90
2022-09-09T01:14:00.978Z,7.93
2022-09-09T01:16:29.794Z,10.13
2022-09-09T01:18:58.877Z,8.93
2022-09-09T01:21:32.802Z,10.97
2022-09-09T01:24:11.300Z,13.23
2022-09-09T01:26:42.663Z,10.00
2022-09-09T01:29:11.773Z,14.60
2022-09-09T01:31:41.934Z,10.90
2022-09-09T01:34:14.348Z,10.00
2022-09-09T01:36:45.696Z,14.33
2022-09-09T01:39:14.502Z,6.23
2022-09-09T01:41:44.315Z,12.60
2022-09-09T01:44:12.674Z,13.20
2022-09-09T01:46:41.012Z,17.27
2022-09-09T01:49:10.318Z,15.23
2022-09-09T01:51:40.674Z,17.10
2022-09-09T01:54:09.391Z,18.70
2022-09-09T01:56:40.233Z,13.07
2022-09-09T01:59:20.470Z,11.77
2022-09-09T02:01:56.551Z,13.60
2022-09-09T02:04:33.896Z,9.40
2022-09-09T02:07:02.932Z,20.77
2022-09-09T02:09:32.769Z,24.27
2022-09-09T02:12:03.698Z,15.37
2022-09-09T02:14:37.626Z,20.30
2022-09-09T02:17:08.904Z,22.57
2022-09-09T02:19:39.567Z,18.80
2022-09-09T02:22:08.268Z,10.80
2022-09-09T02:24:37.720Z,24.33
2022-09-09T02:27:09.834Z,19.57
2022-09-09T02:29:42.223Z,16.57
2022-09-09T02:32:12.215Z,9.00
2022-09-09T02:34:43.120Z,23.97
2022-09-09T02:37:12.282Z,24.90
2022-09-09T02:39:40.573Z,7.27
2022-09-09T02:42:09.469Z,25.87
2022-09-09T02:44:38.365Z,22.10
2022-09-09T02:47:24.672Z,22.40
2022-09-09T02:50:00.335Z,21.60
2022-09-09T02:52:29.748Z,23.13
2022-09-09T02:55:00.744Z,2.30
2022-09-09T02:57:31.017Z,6.57
2022-09-09T03:00:00.199Z,0.50
2022-09-09T03:02:28.776Z,7.50
2022-09-09T03:04:59.028Z,6.60
2022-09-09T03:07:28.405Z,7.40
2022-09-09T03:09:56.834Z,13.73
2022-09-09T03:12:25.207Z,7.00
2022-09-09T03:14:56.333Z,3.80
2022-09-09T03:17:25.686Z,5.60
2022-09-09T03:19:55.556Z,10.80
2022-09-09T03:22:26.226Z,3.37
2022-09-09T03:24:54.649Z,0.80
2022-09-09T03:27:23.079Z,4.87
2022-09-09T03:29:52.685Z,13.87
2022-09-09T03:32:23.360Z,13.70
2022-09-09T03:34:51.686Z,11.07
2022-09-09T03:37:20.026Z,13.37
2022-09-09T03:39:49.738Z,9.70
2022-09-09T03:42:20.049Z,7.17
2022-09-09T03:44:52.533Z,3.07
2022-09-09T03:47:22.563Z,12.43
2022-09-09T03:49:51.025Z,2.17
2022-09-09T03:52:23.018Z,1.30
2022-09-09T03:54:57.871Z,12.80
2022-09-09T03:57:26.250Z,6.23
2022-09-09T03:59:55.271Z,11.43
2022-09-09T04:02:23.709Z,0.83
2022-09-09T04:04:52.070Z,9.53
2022-09-09T04:07:20.315Z,1.13
2022-09-09T04:09:48.990Z,3.00
2022-09-09T04:12:18.901Z,6.40
2022-09-09T04:14:47.210Z,5.60
2022-09-09T04:17:15.552Z,1.23
2022-09-09T04:19:44.340Z,7.93
2022-09-09T04:22:12.658Z,1.33
2022-09-09T04:24:43.523Z,1.37
2022-09-09T04:27:13.857Z,9.83
2022-09-09T04:29:43.523Z,14.23
2022-09-09T04:32:11.960Z,6.90
2022-09-09T04:34:40.498Z,16.43
2022-09-09T04:37:08.831Z,12.47
2022-09-09T04:39:37.825Z,13.07
2022-09-09T04:42:06.366Z,10.03
2022-09-09T04:44:34.718Z,19.37
2022-09-09T04:47:04.416Z,15.47
2022-09-09T04:49:33.062Z,12.53
2022-09-09T04:52:02.093Z,14.60
2022-09-09T04:54:30.545Z,15.03
2022-09-09T04:56:58.891Z,10.53
2022-09-09T04:59:27.287Z,7.00
2022-09-09T05:01:56.551Z,1.87
2022-09-09T05:04:26.411Z,10.40
2022-09-09T05:06:54.812Z,15.43
2022-09-09T05:09:23.134Z,9.47
2022-09-09T05:11:53.533Z,11.53
2022-09-09T05:14:21.881Z,14.73
2022-09-09T05:16:50.918Z,3.10
2022-09-09T05:19:20.885Z,6.60
2022-09-09T05:21:51.026Z,2.97
2022-09-09T05:24:19.595Z,8.57
2022-09-09T05:26:47.970Z,3.40
2022-09-09T05:29:18.191Z,2.03
2022-09-09T05:31:46.580Z,3.17
2022-09-09T05:34:15.123Z,0.80
2022-09-09T05:36:43.490Z,4.73
2022-09-09T05:39:14.103Z,4.53
2022-09-09T05:41:42.422Z,2.00
2022-09-09T05:44:10.734Z,1.83
2022-09-09T05:46:39.124Z,6.50
2022-09-09T05:49:07.567Z,8.00
2022-09-09T05:51:35.922Z,5.57
2022-09-09T05:54:04.296Z,6.37
2022-09-09T05:56:34.227Z,4.60
2022-09-09T05:59:04.654Z,11.63
2022-09-09T06:01:34.240Z,5.30
2022-09-09T06:04:02.730Z,7.93
2022-09-09T06:06:37.498Z,6.87
2022-09-09T06:09:10.466Z,9.13
2022-09-09T06:11:41.056Z,8.90
2022-09-09T06:14:09.974Z,1.50
2022-09-09T06:16:39.235Z,10.17
2022-09-09T06:19:07.868Z,8.13
2022-09-09T06:21:38.013Z,5.93
2022-09-09T06:24:06.557Z,7.90
2022-09-09T06:26:35.793Z,6.60
2022-09-09T06:29:05.977Z,4.53
2022-09-09T06:31:35.573Z,5.30
2022-09-09T06:34:04.633Z,9.10
2022-09-09T06:36:34.171Z,7.40
2022-09-09T06:39:02.603Z,7.47
2022-09-09T06:41:31.767Z,7.67
2022-09-09T06:44:00.088Z,10.80
2022-09-09T06:46:33.376Z,6.57
2022-09-09T06:49:03.404Z,6.17
2022-09-09T06:51:32.620Z,10.03
2022-09-09T06:54:03.199Z,7.00
2022-09-09T06:56:32.383Z,6.03
2022-09-09T06:59:02.048Z,9.87
2022-09-09T07:01:32.782Z,6.87
2022-09-09T07:04:01.725Z,11.50
2022-09-09T07:06:30.889Z,7.50
2022-09-09T07:09:00.108Z,7.20
2022-09-09T07:11:29.519Z,10.60
2022-09-09T07:13:59.851Z,8.17
2022-09-09T07:16:30.280Z,12.50
2022-09-09T07:19:00.066Z,11.13
2022-09-09T07:21:29.027Z,7.63
2022-09-09T07:23:57.658Z,12.17
2022-09-09T07:26:27.297Z,14.57
2022-09-09T07:28:56.701Z,11.13
2022-09-09T07:31:27.230Z,10.43
2022-09-09T07:33:55.866Z,8.67
2022-09-09T07:36:31.234Z,8.97
2022-09-09T07:39:02.828Z,9.03
2022-09-09T07:41:33.061Z,8.50
2022-09-09T07:44:01.540Z,14.50
2022-09-09T07:46:30.055Z,9.53
2022-09-09T07:48:59.625Z,11.63
2022-09-09T07:51:30.949Z,10.20
2022-09-09T07:54:00.209Z,12.00
2022-09-09T07:56:29.259Z,6.87
2022-09-09T07:58:58.644Z,10.73
2022-09-09T08:01:28.600Z,9.97
2022-09-09T08:03:59.816Z,11.00
2022-09-09T08:06:30.330Z,12.17
2022-09-09T08:08:58.992Z,10.30
2022-09-09T08:11:29.326Z,7.73
2022-09-09T08:14:02.496Z,10.00
2022-09-09T08:16:32.309Z,8.27
2022-09-09T08:19:01.245Z,13.80
2022-09-09T08:21:32.690Z,11.50
2022-09-09T08:24:01.942Z,10.67
2022-09-09T08:26:31.070Z,9.83
2022-09-09T08:29:02.781Z,10.63
2022-09-09T08:31:32.121Z,10.80
2022-09-09T08:34:01.488Z,8.60
2022-09-09T08:36:33.967Z,11.90
2022-09-09T08:39:03.018Z,9.93
2022-09-09T08:41:46.340Z,10.40
2022-09-09T08:44:18.116Z,9.67
2022-09-09T08:46:51.228Z,12.00
2022-09-09T08:49:28.928Z,11.03
2022-09-09T08:51:59.241Z,9.67
2022-09-09T08:54:51.148Z,7.27
2022-09-09T08:57:22.910Z,8.87
2022-09-09T08:59:52.028Z,11.27
2022-09-09T09:02:25.687Z,9.60
2022-09-09T09:05:12.361Z,7.40
2022-09-09T09:07:49.070Z,9.87
2022-09-09T09:10:40.353Z,7.03
2022-09-09T09:13:15.321Z,9.23
2022-09-09T09:15:44.572Z,6.73
2022-09-09T09:18:15.077Z,8.30
2022-09-09T09:20:49.484Z,8.03
2022-09-09T09:23:24.524Z,8.20
2022-09-09T09:25:55.367Z,13.73
2022-09-09T09:28:26.304Z,7.37
2022-09-09T09:30:58.739Z,11.97
2022-09-09T09:33:29.386Z,7.03
2022-09-09T09:35:57.856Z,9.13
2022-09-09T09:41:19.393Z,9.43
2022-09-09T09:43:56.259Z,8.80
2022-09-09T09:46:28.374Z,9.23
2022-09-09T09:49:00.966Z,8.33
2022-09-09T09:51:30.131Z,8.30
2022-09-09T09:54:10.646Z,12.07
2022-09-09T09:56:39.218Z,8.50
2022-09-09T09:59:17.824Z,8.73
2022-09-09T10:01:52.500Z,12.10
2022-09-09T10:04:24.838Z,10.60
2022-09-09T10:06:55.566Z,7.90
2022-09-09T10:09:26.735Z,11.53
2022-09-09T10:11:59.199Z,8.00
2022-09-09T10:14:30.455Z,6.20
2022-09-09T10:17:04.945Z,10.37
2022-09-09T10:19:34.680Z,11.43
2022-09-09T10:22:08.741Z,3.83
2022-09-09T10:24:44.589Z,7.10
2022-09-09T10:27:26.328Z,7.03
2022-09-09T10:30:09.822Z,4.43
2022-09-09T10:32:43.964Z,6.53
2022-09-09T10:35:14.739Z,8.30
2022-09-09T10:37:47.778Z,8.37
2022-09-09T10:40:31.228Z,5.57
2022-09-09T10:43:04.017Z,8.87
2022-09-09T10:45:35.735Z,9.57
2022-09-09T10:48:22.747Z,7.70
2022-09-09T10:51:01.292Z,7.27
2022-09-09T10:53:40.265Z,5.40
2022-09-09T10:56:11.553Z,6.87
2022-09-09T10:58:43.756Z,7.83
2022-09-09T11:01:17.270Z,6.90
2022-09-09T11:03:46.372Z,4.63
2022-09-09T11:06:16.915Z,4.70
2022-09-09T11:08:45.470Z,5.47
2022-09-09T11:11:18.964Z,6.43
2022-09-09T11:13:51.882Z,7.57
2022-09-09T11:16:25.205Z,4.50
2022-09-09T11:18:58.624Z,5.90
2022-09-09T11:21:30.985Z,5.40
2022-09-09T11:24:00.946Z,4.90
2022-09-09T11:26:35.315Z,6.97
2022-09-09T11:29:12.197Z,7.57
2022-09-09T11:31:48.687Z,5.20
2022-09-09T11:34:26.740Z,7.57
2022-09-09T11:37:11.406Z,7.37
2022-09-09T11:39:56.487Z,8.23
2022-09-09T11:42:27.326Z,6.87
2022-09-09T11:44:56.084Z,7.33
2022-09-09T11:47:30.392Z,9.30
2022-09-09T11:50:10.132Z,8.13
2022-09-09T11:52:39.943Z,5.00
2022-09-09T11:55:12.875Z,7.53
2022-09-09T11:58:02.199Z,3.60
2022-09-09T12:00:33.861Z,6.43
2022-09-09T12:03:02.391Z,7.27
2022-09-09T12:05:39.890Z,4.30
2022-09-09T12:08:10.046Z,4.83
2022-09-09T12:10:41.516Z,5.20
2022-09-09T12:13:27.824Z,3.00
2022-09-09T12:15:58.770Z,3.73
2022-09-09T12:18:27.940Z,4.63
2022-09-09T12:21:00.662Z,3.17
2022-09-09T12:23:34.008Z,4.67
2022-09-09T12:26:15.571Z,4.50
2022-09-09T12:28:53.088Z,4.00
2022-09-09T12:31:27.277Z,4.60
2022-09-09T12:33:58.241Z,5.57
2022-09-09T12:36:27.593Z,7.30
2022-09-09T12:38:56.436Z,3.57
2022-09-09T12:41:28.188Z,3.10
2022-09-09T12:44:06.853Z,3.63
2022-09-09T12:46:39.565Z,6.03
2022-09-09T12:49:08.719Z,4.87
2022-09-09T12:51:42.655Z,5.07
2022-09-09T12:54:16.636Z,4.07
2022-09-09T12:56:48.225Z,3.53
2022-09-09T12:59:37.811Z,8.63
2022-09-09T13:02:33.965Z,5.37
2022-09-09T13:05:18.039Z,4.33
2022-09-09T13:07:46.547Z,2.13
2022-09-09T13:10:21.503Z,5.93
2022-09-09T13:16:58.614Z,5.77
2022-09-09T13:19:32.810Z,6.53
2022-09-09T13:22:03.605Z,6.27
2022-09-09T13:24:33.220Z,4.77
2022-09-09T13:27:26.789Z,5.40
2022-09-09T13:30:36.279Z,4.43
2022-09-09T13:33:58.896Z,4.30
2022-09-09T13:36:32.474Z,6.70
2022-09-09T13:43:26.250Z,4.10
2022-09-09T13:46:38.384Z,4.60
2022-09-09T13:49:21.939Z,6.57
2022-09-09T14:00:14.522Z,5.63
2022-09-09T14:02:45.144Z,6.93
2022-09-09T14:05:13.783Z,3.90
2022-09-09T14:08:17.100Z,4.40
2022-09-09T14:11:34.805Z,5.33
2022-09-09T14:14:06.510Z,4.93
2022-09-09T14:16:40.493Z,3.87
2022-09-09T14:19:56.565Z,3.87
2022-09-09T14:22:27.580Z,4.00
2022-09-09T14:24:59.129Z,3.03
2022-09-09T14:27:49.040Z,3.00
2022-09-09T14:34:20.060Z,4.37
2022-09-09T14:37:02.467Z,3.57
2022-09-09T14:39:39.485Z,4.27
2022-09-09T14:45:27.642Z,4.27
2022-09-09T14:53:12.552Z,5.73
2022-09-09T14:55:36.926Z,4.00
2022-09-09T15:01:52.550Z,4.97
2022-09-09T15:04:39.044Z,4.40
2022-09-09T15:11:05.640Z,6.37
2022-09-09T15:13:36.612Z,7.27
2022-09-09T15:16:09.288Z,6.80
2022-09-09T15:18:43.749Z,1.60
2022-09-09T15:21:12.695Z,4.30
2022-09-09T15:23:42.376Z,3.90
2022-09-09T15:26:12.345Z,5.43
2022-09-09T15:28:41.333Z,5.50
2022-09-09T15:31:10.554Z,2.30
2022-09-09T15:33:39.404Z,6.40
2022-09-09T15:36:18.309Z,5.53
2022-09-09T15:38:46.745Z,6.73
2022-09-09T15:41:20.124Z,4.00
2022-09-09T15:43:48.784Z,5.13
2022-09-09T15:46:28.350Z,5.43
2022-09-09T15:48:57.610Z,4.70
2022-09-09T15:51:43.909Z,8.30
2022-09-09T15:54:13.945Z,7.63
2022-09-09T15:56:44.081Z,6.43
2022-09-09T15:59:12.523Z,3.37
2022-09-09T16:01:41.858Z,3.23
2022-09-09T16:04:10.666Z,3.57
2022-09-09T16:06:41.092Z,7.60
2022-09-09T16:09:11.046Z,6.20
2022-09-09T16:11:40.219Z,3.27
2022-09-09T16:14:10.175Z,3.37
2022-09-09T16:16:38.632Z,9.27
2022-09-09T16:19:10.336Z,6.13
2022-09-09T16:21:40.662Z,6.00
2022-09-09T16:24:09.591Z,6.77
2022-09-09T16:26:42.257Z,2.80
2022-09-09T16:29:12.103Z,6.57
2022-09-09T16:31:45.199Z,2.37
2022-09-09T16:34:13.656Z,8.27
2022-09-09T16:36:42.678Z,9.73
2022-09-09T16:39:11.869Z,6.30
2022-09-09T16:41:41.392Z,3.33
2022-09-09T16:44:10.589Z,4.53
2022-09-09T16:46:40.920Z,8.43
2022-09-09T16:49:10.987Z,2.37
2022-09-09T16:51:40.499Z,4.80
2022-09-09T16:54:09.562Z,3.43
2022-09-09T16:56:38.966Z,2.27
2022-09-09T16:59:09.485Z,0.40
2022-09-09T17:01:39.512Z,5.40
2022-09-09T17:04:10.322Z,3.37
2022-09-09T17:06:39.021Z,3.13
2022-09-09T17:09:08.151Z,6.33
2022-09-09T17:11:37.588Z,5.83
2022-09-09T17:14:06.343Z,0.80
2022-09-09T17:16:36.169Z,6.57
2022-09-09T17:19:05.785Z,6.37
2022-09-09T17:21:35.579Z,4.63
2022-09-09T17:24:04.284Z,3.73
2022-09-09T17:26:34.038Z,5.53
2022-09-09T17:29:02.937Z,6.63
2022-09-09T17:31:33.725Z,4.80
2022-09-09T17:34:02.695Z,6.23
2022-09-09T17:36:32.291Z,5.27
2022-09-09T17:39:02.321Z,7.53
2022-09-09T17:41:32.935Z,5.73
2022-09-09T17:44:02.227Z,6.27
2022-09-09T17:46:32.583Z,10.00
2022-09-09T17:49:01.966Z,6.23
2022-09-09T17:51:32.135Z,5.93
2022-09-09T17:54:02.742Z,3.27
2022-09-09T17:56:32.684Z,4.70
2022-09-09T17:59:01.538Z,7.00
2022-09-09T18:01:31.288Z,8.67
2022-09-09T18:04:02.005Z,9.30
2022-09-09T18:06:31.314Z,7.80
2022-09-09T18:09:00.839Z,6.87
2022-09-09T18:11:31.936Z,4.47
2022-09-09T18:14:01.916Z,3.50
2022-09-09T18:16:30.851Z,4.80
2022-09-09T18:19:00.196Z,18.10
2022-09-09T18:21:33.191Z,6.57
2022-09-09T18:24:01.831Z,13.80
2022-09-09T18:26:33.648Z,10.80
2022-09-09T18:29:03.750Z,8.90
2022-09-09T18:31:32.622Z,7.73
2022-09-09T18:34:02.850Z,10.00
2022-09-09T18:36:32.028Z,7.00
2022-09-09T18:39:00.900Z,7.00
2022-09-09T18:41:29.901Z,8.17
2022-09-09T18:44:01.578Z,7.33
2022-09-09T18:46:30.669Z,8.17
2022-09-09T18:48:59.362Z,9.60
2022-09-09T18:51:28.639Z,9.77
2022-09-09T18:53:57.915Z,9.90
2022-09-09T18:56:26.615Z,13.03
2022-09-09T18:58:55.741Z,9.57
2022-09-09T19:01:25.974Z,12.60
2022-09-09T19:03:56.818Z,13.13
2022-09-09T19:06:26.010Z,9.57
2022-09-09T19:08:57.496Z,14.57
2022-09-09T19:11:29.188Z,15.17
2022-09-09T19:13:58.626Z,14.70
2022-09-09T19:16:29.588Z,14.57
2022-09-09T19:19:00.814Z,16.93
2022-09-09T19:21:30.117Z,16.10
2022-09-09T19:24:00.113Z,14.57
2022-09-09T19:26:29.729Z,17.17
2022-09-09T19:28:59.457Z,15.03
2022-09-09T19:31:30.316Z,13.83
2022-09-09T19:33:58.976Z,6.90
2022-09-09T19:36:29.617Z,16.83
2022-09-09T19:38:58.014Z,17.20
2022-09-09T19:41:27.212Z,12.13
2022-09-09T19:44:01.054Z,14.07
2022-09-09T19:46:31.457Z,16.03
2022-09-09T19:49:00.961Z,17.73
2022-09-09T19:51:30.419Z,21.77
2022-09-09T19:54:00.645Z,18.50
2022-09-09T19:56:29.620Z,14.20
2022-09-09T19:58:58.858Z,17.90
2022-09-09T20:01:28.272Z,19.37
2022-09-09T20:03:59.719Z,9.80
2022-09-09T20:06:28.948Z,16.17
2022-09-09T20:08:58.176Z,16.33
2022-09-09T20:11:26.845Z,10.97
2022-09-09T20:13:55.624Z,15.37
2022-09-09T20:16:25.228Z,15.27
2022-09-09T20:18:54.342Z,14.20
2022-09-09T20:21:25.189Z,17.40
2022-09-09T20:23:54.070Z,16.27
2022-09-09T20:26:23.493Z,10.87
2022-09-09T20:28:54.455Z,5.30
2022-09-09T20:31:26.618Z,17.63
2022-09-09T20:33:55.665Z,11.17
2022-09-09T20:36:26.983Z,9.40
2022-09-09T20:38:57.896Z,14.37
2022-09-09T20:41:27.828Z,9.87
2022-09-09T20:43:57.289Z,11.30
2022-09-09T20:46:27.203Z,11.40
2022-09-09T20:48:59.676Z,6.27
2022-09-09T20:51:33.202Z,7.53
2022-09-09T20:54:03.126Z,6.80
2022-09-09T20:56:33.469Z,3.80
2022-09-09T20:59:02.769Z,5.17
2022-09-09T21:01:31.192Z,3.20
2022-09-09T21:04:00.192Z,3.93
2022-09-09T21:06:28.661Z,1.53
2022-09-09T21:08:58.427Z,0.40
2022-09-09T21:11:26.721Z,3.57
2022-09-09T21:13:56.433Z,9.50
2022-09-09T21:16:24.793Z,4.10
2022-09-09T21:18:53.290Z,8.03
2022-09-09T21:21:22.149Z,3.07
2022-09-09T21:23:50.701Z,4.63
2022-09-09T21:26:20.491Z,3.77
2022-09-09T21:28:48.864Z,7.33
2022-09-09T21:31:17.825Z,5.47
2022-09-09T21:33:46.762Z,6.90
2022-09-09T21:36:16.446Z,4.27
2022-09-09T21:38:44.913Z,5.87
2022-09-09T21:41:14.316Z,8.37
2022-09-09T21:43:44.896Z,10.30
2022-09-09T21:46:18.108Z,7.57
2022-09-09T21:48:46.735Z,7.23
2022-09-09T21:51:16.158Z,8.17
2022-09-09T21:53:44.974Z,5.33
2022-09-09T21:56:14.138Z,2.40
2022-09-09T21:58:43.915Z,4.27
2022-09-09T22:01:13.335Z,1.97
2022-09-09T22:03:42.742Z,1.23
2022-09-09T22:06:12.116Z,0.67
2022-09-09T22:08:40.469Z,2.43
2022-09-09T22:11:09.278Z,2.57
2022-09-09T22:13:38.174Z,1.87
2022-09-09T22:16:09.204Z,1.53
2022-09-09T22:18:37.951Z,5.80
2022-09-09T22:21:07.435Z,2.30
2022-09-09T22:23:36.390Z,5.07
2022-09-09T22:26:04.958Z,6.63
2022-09-09T22:28:34.355Z,10.20
2022-09-09T22:31:03.161Z,8.00
2022-09-09T22:33:32.897Z,8.03
2022-09-09T22:36:01.284Z,7.10
2022-09-09T22:38:29.551Z,11.57
2022-09-09T22:40:58.230Z,9.93
2022-09-09T22:43:26.664Z,9.40
2022-09-09T22:45:55.025Z,8.40
2022-09-09T22:48:24.597Z,15.37
2022-09-09T22:50:54.808Z,18.83
2022-09-09T22:53:23.193Z,19.33
2022-09-09T22:55:59.358Z,14.60
2022-09-09T22:58:29.059Z,21.67
2022-09-09T23:00:58.718Z,18.47
2022-09-09T23:03:27.141Z,17.80
2022-09-09T23:05:58.093Z,19.83
2022-09-09T23:08:27.576Z,17.80
2022-09-09T23:10:55.904Z,15.77
2022-09-09T23:13:25.401Z,16.77
2022-09-09T23:15:55.218Z,13.17
2022-09-09T23:18:26.831Z,12.60
2022-09-09T23:21:00.609Z,21.17
2022-09-09T23:23:29.245Z,20.60
2022-09-09T23:25:57.568Z,18.63
2022-09-09T23:28:26.801Z,16.07
2022-09-09T23:30:55.690Z,21.10
2022-09-09T23:33:24.128Z,22.03
2022-09-09T23:36:01.207Z,20.00
2022-09-09T23:38:30.645Z,18.43
2022-09-09T23:41:02.483Z,19.00
2022-09-09T23:43:30.888Z,20.20
2022-09-09T23:46:00.871Z,10.63
2022-09-09T23:48:29.275Z,12.43
2022-09-09T23:50:57.762Z,13.93
2022-09-09T23:53:27.483Z,11.43
2022-09-09T23:55:55.770Z,10.60
2022-09-09T23:58:24.122Z,8.13
